Diyarbakir, Turkey
Current Conditions -  °F | °C
As of 4:50 AM on Friday 19 Dec 2014 (Local Time) from LTCC Reporting Station
Haze Haze  
Wind Chill: 41°   Ceiling: 900
Heat Index: 41°   Visibility: 0.81mi
Dew Point: 41°   Wind: 3mph
Humidity: 100%   Direction: 160°SSE
Pressure: 30.15"   Gusts: NA
Location:  37.92°N, 40.23°E
Report Text: LTCC 190150Z 16003KT 1300 R34/P1500U R16/P1500U BR BKN009 05/05 Q1021 NOSIG
Loading
Personal Weather Stations






























Interactive Weather Map New forecast layout! Learn more

10-Day Weather Forecast

Advertisements
Track Severe Weather on mobile